sensor_id;sensor_type;location;lat;lon;timestamp;P1;durP1;ratioP1;P2;durP2;ratioP2
30096;SDS011;16915;51.466;3.610;2024-03-25T00:00:54;12.73;;;3.22;;
30096;SDS011;16915;51.466;3.610;2024-03-25T00:03:19;11.75;;;3.03;;
30096;SDS011;16915;51.466;3.610;2024-03-25T00:05:45;13.10;;;2.95;;
30096;SDS011;16915;51.466;3.610;2024-03-25T00:08:11;10.77;;;2.63;;
30096;SDS011;16915;51.466;3.610;2024-03-25T00:10:37;16.63;;;4.10;;
30096;SDS011;16915;51.466;3.610;2024-03-25T00:13:02;13.20;;;4.45;;
30096;SDS011;16915;51.466;3.610;2024-03-25T00:15:28;19.08;;;4.40;;
30096;SDS011;16915;51.466;3.610;2024-03-25T00:17:53;14.98;;;3.78;;
30096;SDS011;16915;51.466;3.610;2024-03-25T00:20:19;17.75;;;3.95;;
30096;SDS011;16915;51.466;3.610;2024-03-25T00:22:44;17.25;;;3.83;;
30096;SDS011;16915;51.466;3.610;2024-03-25T00:25:10;26.23;;;4.18;;
30096;SDS011;16915;51.466;3.610;2024-03-25T00:27:36;11.35;;;3.75;;
30096;SDS011;16915;51.466;3.610;2024-03-25T00:30:02;14.32;;;4.05;;
30096;SDS011;16915;51.466;3.610;2024-03-25T00:32:28;12.48;;;4.13;;
30096;SDS011;16915;51.466;3.610;2024-03-25T00:34:53;10.32;;;3.78;;
30096;SDS011;16915;51.466;3.610;2024-03-25T00:37:19;15.02;;;4.38;;
30096;SDS011;16915;51.466;3.610;2024-03-25T00:39:44;11.95;;;4.50;;
30096;SDS011;16915;51.466;3.610;2024-03-25T00:42:10;14.18;;;4.75;;
30096;SDS011;16915;51.466;3.610;2024-03-25T00:44:36;9.65;;;3.78;;
30096;SDS011;16915;51.466;3.610;2024-03-25T00:47:01;11.80;;;3.72;;
30096;SDS011;16915;51.466;3.610;2024-03-25T00:49:27;10.52;;;4.10;;
30096;SDS011;16915;51.466;3.610;2024-03-25T00:51:52;6.13;;;3.85;;
30096;SDS011;16915;51.466;3.610;2024-03-25T00:54:18;9.73;;;3.63;;
30096;SDS011;16915;51.466;3.610;2024-03-25T00:56:44;5.55;;;3.17;;
30096;SDS011;16915;51.466;3.610;2024-03-25T00:59:11;10.07;;;3.90;;
30096;SDS011;16915;51.466;3.610;2024-03-25T01:01:37;10.35;;;3.80;;
30096;SDS011;16915;51.466;3.610;2024-03-25T01:04:02;9.43;;;3.80;;
30096;SDS011;16915;51.466;3.610;2024-03-25T01:06:28;10.57;;;3.92;;
30096;SDS011;16915;51.466;3.610;2024-03-25T01:08:54;17.92;;;4.57;;
30096;SDS011;16915;51.466;3.610;2024-03-25T01:11:20;10.52;;;3.95;;
30096;SDS011;16915;51.466;3.610;2024-03-25T01:13:46;11.63;;;4.28;;
30096;SDS011;16915;51.466;3.610;2024-03-25T01:16:12;8.48;;;3.95;;
30096;SDS011;16915;51.466;3.610;2024-03-25T01:18:37;11.27;;;3.97;;
30096;SDS011;16915;51.466;3.610;2024-03-25T01:21:03;8.82;;;3.70;;
30096;SDS011;16915;51.466;3.610;2024-03-25T01:23:29;6.75;;;3.65;;
30096;SDS011;16915;51.466;3.610;2024-03-25T01:25:55;13.27;;;4.47;;
30096;SDS011;16915;51.466;3.610;2024-03-25T01:28:21;9.88;;;4.63;;
30096;SDS011;16915;51.466;3.610;2024-03-25T01:30:47;13.55;;;4.40;;
30096;SDS011;16915;51.466;3.610;2024-03-25T01:33:13;11.55;;;3.75;;
30096;SDS011;16915;51.466;3.610;2024-03-25T01:35:39;8.50;;;3.97;;
30096;SDS011;16915;51.466;3.610;2024-03-25T01:38:05;8.90;;;4.15;;
30096;SDS011;16915;51.466;3.610;2024-03-25T01:40:30;13.38;;;4.30;;
30096;SDS011;16915;51.466;3.610;2024-03-25T01:42:56;11.65;;;4.93;;
30096;SDS011;16915;51.466;3.610;2024-03-25T01:45:24;11.00;;;4.72;;
30096;SDS011;16915;51.466;3.610;2024-03-25T01:47:50;10.45;;;4.38;;
30096;SDS011;16915;51.466;3.610;2024-03-25T01:50:17;6.55;;;4.40;;
30096;SDS011;16915;51.466;3.610;2024-03-25T01:52:43;7.15;;;4.18;;
30096;SDS011;16915;51.466;3.610;2024-03-25T01:55:10;13.93;;;5.00;;
30096;SDS011;16915;51.466;3.610;2024-03-25T01:57:41;15.63;;;4.90;;
30096;SDS011;16915;51.466;3.610;2024-03-25T02:00:08;13.88;;;5.32;;
30096;SDS011;16915;51.466;3.610;2024-03-25T02:02:35;11.73;;;5.03;;
30096;SDS011;16915;51.466;3.610;2024-03-25T02:07:32;10.35;;;3.97;;
30096;SDS011;16915;51.466;3.610;2024-03-25T02:10:02;12.55;;;5.00;;
30096;SDS011;16915;51.466;3.610;2024-03-25T02:12:29;11.80;;;5.18;;
30096;SDS011;16915;51.466;3.610;2024-03-25T02:14:56;10.63;;;4.70;;
30096;SDS011;16915;51.466;3.610;2024-03-25T02:17:23;10.52;;;4.65;;
30096;SDS011;16915;51.466;3.610;2024-03-25T02:19:49;11.15;;;5.35;;
30096;SDS011;16915;51.466;3.610;2024-03-25T02:22:15;10.00;;;4.57;;
30096;SDS011;16915;51.466;3.610;2024-03-25T02:24:41;10.70;;;5.13;;
30096;SDS011;16915;51.466;3.610;2024-03-25T02:27:07;12.95;;;4.40;;
30096;SDS011;16915;51.466;3.610;2024-03-25T02:29:35;11.65;;;4.55;;
30096;SDS011;16915;51.466;3.610;2024-03-25T02:32:01;18.45;;;6.30;;
30096;SDS011;16915;51.466;3.610;2024-03-25T02:34:26;13.35;;;5.20;;
30096;SDS011;16915;51.466;3.610;2024-03-25T02:36:52;8.20;;;5.05;;
30096;SDS011;16915;51.466;3.610;2024-03-25T02:39:18;13.70;;;5.20;;
30096;SDS011;16915;51.466;3.610;2024-03-25T02:41:44;17.42;;;5.35;;
30096;SDS011;16915;51.466;3.610;2024-03-25T02:44:11;15.57;;;5.95;;
30096;SDS011;16915;51.466;3.610;2024-03-25T02:46:39;9.20;;;5.00;;
30096;SDS011;16915;51.466;3.610;2024-03-25T02:49:05;16.17;;;5.88;;
30096;SDS011;16915;51.466;3.610;2024-03-25T02:51:31;16.70;;;5.47;;
30096;SDS011;16915;51.466;3.610;2024-03-25T02:53:56;14.13;;;5.03;;
30096;SDS011;16915;51.466;3.610;2024-03-25T02:56:22;13.57;;;4.47;;
30096;SDS011;16915;51.466;3.610;2024-03-25T02:58:47;5.88;;;4.45;;
30096;SDS011;16915;51.466;3.610;2024-03-25T03:01:13;10.57;;;5.03;;
30096;SDS011;16915;51.466;3.610;2024-03-25T03:03:40;6.68;;;4.65;;
30096;SDS011;16915;51.466;3.610;2024-03-25T03:06:06;11.80;;;4.47;;
30096;SDS011;16915;51.466;3.610;2024-03-25T03:08:31;11.18;;;4.57;;
30096;SDS011;16915;51.466;3.610;2024-03-25T03:10:57;9.68;;;4.47;;
30096;SDS011;16915;51.466;3.610;2024-03-25T03:13:22;9.32;;;4.70;;
30096;SDS011;16915;51.466;3.610;2024-03-25T03:15:48;12.80;;;5.13;;
30096;SDS011;16915;51.466;3.610;2024-03-25T03:18:13;10.32;;;5.13;;
30096;SDS011;16915;51.466;3.610;2024-03-25T03:20:39;9.25;;;4.75;;
30096;SDS011;16915;51.466;3.610;2024-03-25T03:23:04;7.05;;;4.53;;
30096;SDS011;16915;51.466;3.610;2024-03-25T03:25:30;10.05;;;4.93;;
30096;SDS011;16915;51.466;3.610;2024-03-25T03:27:56;13.57;;;5.30;;
30096;SDS011;16915;51.466;3.610;2024-03-25T03:30:21;7.88;;;5.32;;
30096;SDS011;16915;51.466;3.610;2024-03-25T03:32:47;13.27;;;5.10;;
30096;SDS011;16915;51.466;3.610;2024-03-25T03:35:12;9.38;;;5.25;;
30096;SDS011;16915;51.466;3.610;2024-03-25T03:37:38;16.00;;;5.65;;
30096;SDS011;16915;51.466;3.610;2024-03-25T03:40:04;15.25;;;5.40;;
30096;SDS011;16915;51.466;3.610;2024-03-25T03:42:31;16.67;;;5.55;;
30096;SDS011;16915;51.466;3.610;2024-03-25T03:44:56;14.15;;;5.85;;
30096;SDS011;16915;51.466;3.610;2024-03-25T03:47:22;14.48;;;6.75;;
30096;SDS011;16915;51.466;3.610;2024-03-25T03:49:47;9.77;;;6.40;;
30096;SDS011;16915;51.466;3.610;2024-03-25T03:52:13;12.43;;;7.47;;
30096;SDS011;16915;51.466;3.610;2024-03-25T03:54:38;13.30;;;7.32;;
30096;SDS011;16915;51.466;3.610;2024-03-25T03:57:04;18.90;;;7.55;;
30096;SDS011;16915;51.466;3.610;2024-03-25T03:59:30;15.60;;;6.85;;
30096;SDS011;16915;51.466;3.610;2024-03-25T04:01:56;15.18;;;6.95;;
30096;SDS011;16915;51.466;3.610;2024-03-25T04:04:22;17.13;;;7.68;;
30096;SDS011;16915;51.466;3.610;2024-03-25T04:06:47;21.08;;;9.85;;
30096;SDS011;16915;51.466;3.610;2024-03-25T04:09:13;23.25;;;10.73;;
30096;SDS011;16915;51.466;3.610;2024-03-25T04:11:39;24.98;;;10.23;;
30096;SDS011;16915;51.466;3.610;2024-03-25T04:14:04;24.77;;;11.00;;
30096;SDS011;16915;51.466;3.610;2024-03-25T04:16:30;18.50;;;11.07;;
30096;SDS011;16915;51.466;3.610;2024-03-25T04:18:56;21.10;;;10.85;;
30096;SDS011;16915;51.466;3.610;2024-03-25T04:21:22;28.13;;;11.73;;
30096;SDS011;16915;51.466;3.610;2024-03-25T04:23:48;20.48;;;11.23;;
30096;SDS011;16915;51.466;3.610;2024-03-25T04:26:14;28.63;;;11.63;;
30096;SDS011;16915;51.466;3.610;2024-03-25T04:28:40;32.28;;;12.43;;
30096;SDS011;16915;51.466;3.610;2024-03-25T04:31:07;25.58;;;11.60;;
30096;SDS011;16915;51.466;3.610;2024-03-25T04:33:33;28.40;;;12.77;;
30096;SDS011;16915;51.466;3.610;2024-03-25T04:35:58;25.50;;;13.02;;
30096;SDS011;16915;51.466;3.610;2024-03-25T04:38:24;29.98;;;12.48;;
30096;SDS011;16915;51.466;3.610;2024-03-25T04:40:50;24.88;;;12.30;;
30096;SDS011;16915;51.466;3.610;2024-03-25T04:43:16;31.45;;;13.23;;
30096;SDS011;16915;51.466;3.610;2024-03-25T04:45:41;25.95;;;11.90;;
30096;SDS011;16915;51.466;3.610;2024-03-25T04:48:07;25.80;;;12.48;;
30096;SDS011;16915;51.466;3.610;2024-03-25T04:50:33;31.25;;;12.18;;
30096;SDS011;16915;51.466;3.610;2024-03-25T04:52:59;27.15;;;11.85;;
30096;SDS011;16915;51.466;3.610;2024-03-25T04:55:25;21.83;;;11.55;;
30096;SDS011;16915;51.466;3.610;2024-03-25T04:57:51;26.30;;;11.77;;
30096;SDS011;16915;51.466;3.610;2024-03-25T05:00:17;23.77;;;10.85;;
30096;SDS011;16915;51.466;3.610;2024-03-25T05:02:43;24.58;;;11.13;;
30096;SDS011;16915;51.466;3.610;2024-03-25T05:05:09;29.33;;;11.68;;
30096;SDS011;16915;51.466;3.610;2024-03-25T05:07:35;24.00;;;10.05;;
30096;SDS011;16915;51.466;3.610;2024-03-25T05:10:01;25.00;;;11.18;;
30096;SDS011;16915;51.466;3.610;2024-03-25T05:12:26;20.67;;;10.85;;
30096;SDS011;16915;51.466;3.610;2024-03-25T05:14:55;24.13;;;11.48;;
30096;SDS011;16915;51.466;3.610;2024-03-25T05:17:21;29.23;;;11.95;;
30096;SDS011;16915;51.466;3.610;2024-03-25T05:19:46;23.45;;;10.68;;
30096;SDS011;16915;51.466;3.610;2024-03-25T05:22:12;30.83;;;12.32;;
30096;SDS011;16915;51.466;3.610;2024-03-25T05:24:38;31.92;;;11.32;;
30096;SDS011;16915;51.466;3.610;2024-03-25T05:27:03;27.25;;;11.25;;
30096;SDS011;16915;51.466;3.610;2024-03-25T05:29:29;23.05;;;11.27;;
30096;SDS011;16915;51.466;3.610;2024-03-25T05:31:56;26.83;;;12.00;;
30096;SDS011;16915;51.466;3.610;2024-03-25T05:34:26;29.02;;;10.38;;
30096;SDS011;16915;51.466;3.610;2024-03-25T05:36:52;26.30;;;12.13;;
30096;SDS011;16915;51.466;3.610;2024-03-25T05:39:18;32.97;;;12.88;;
30096;SDS011;16915;51.466;3.610;2024-03-25T05:41:45;24.15;;;11.38;;
30096;SDS011;16915;51.466;3.610;2024-03-25T05:44:11;26.13;;;11.13;;
30096;SDS011;16915;51.466;3.610;2024-03-25T05:46:37;28.63;;;12.15;;
30096;SDS011;16915;51.466;3.610;2024-03-25T05:49:03;31.23;;;12.50;;
30096;SDS011;16915;51.466;3.610;2024-03-25T05:51:30;33.38;;;12.65;;
30096;SDS011;16915;51.466;3.610;2024-03-25T05:53:56;28.20;;;11.48;;
30096;SDS011;16915;51.466;3.610;2024-03-25T05:56:21;29.75;;;12.48;;
30096;SDS011;16915;51.466;3.610;2024-03-25T05:58:47;35.25;;;12.70;;
30096;SDS011;16915;51.466;3.610;2024-03-25T06:01:12;40.58;;;12.38;;
30096;SDS011;16915;51.466;3.610;2024-03-25T06:03:38;27.63;;;12.75;;
30096;SDS011;16915;51.466;3.610;2024-03-25T06:06:04;37.53;;;15.07;;
30096;SDS011;16915;51.466;3.610;2024-03-25T06:08:29;47.60;;;16.15;;
30096;SDS011;16915;51.466;3.610;2024-03-25T06:11:00;42.83;;;16.55;;
30096;SDS011;16915;51.466;3.610;2024-03-25T06:13:26;54.92;;;18.05;;
30096;SDS011;16915;51.466;3.610;2024-03-25T06:15:51;49.58;;;17.15;;
30096;SDS011;16915;51.466;3.610;2024-03-25T06:18:17;46.88;;;16.85;;
30096;SDS011;16915;51.466;3.610;2024-03-25T06:20:42;49.58;;;17.75;;
30096;SDS011;16915;51.466;3.610;2024-03-25T06:23:08;51.92;;;16.88;;
30096;SDS011;16915;51.466;3.610;2024-03-25T06:25:33;61.75;;;17.25;;
30096;SDS011;16915;51.466;3.610;2024-03-25T06:28:00;46.50;;;15.30;;
30096;SDS011;16915;51.466;3.610;2024-03-25T06:30:26;45.30;;;15.82;;
30096;SDS011;16915;51.466;3.610;2024-03-25T06:33:10;45.03;;;14.55;;
30096;SDS011;16915;51.466;3.610;2024-03-25T06:35:54;45.63;;;14.48;;
30096;SDS011;16915;51.466;3.610;2024-03-25T06:38:20;59.10;;;15.02;;
30096;SDS011;16915;51.466;3.610;2024-03-25T06:40:46;48.03;;;16.38;;
30096;SDS011;16915;51.466;3.610;2024-03-25T06:43:11;64.50;;;17.05;;
30096;SDS011;16915;51.466;3.610;2024-03-25T06:45:37;57.15;;;15.35;;
30096;SDS011;16915;51.466;3.610;2024-03-25T06:48:02;48.95;;;15.27;;
30096;SDS011;16915;51.466;3.610;2024-03-25T06:50:28;48.13;;;13.57;;
30096;SDS011;16915;51.466;3.610;2024-03-25T06:52:54;48.33;;;12.80;;
30096;SDS011;16915;51.466;3.610;2024-03-25T06:55:20;43.42;;;12.50;;
30096;SDS011;16915;51.466;3.610;2024-03-25T06:57:47;38.92;;;12.13;;
30096;SDS011;16915;51.466;3.610;2024-03-25T07:00:14;44.72;;;13.10;;
30096;SDS011;16915;51.466;3.610;2024-03-25T07:02:40;46.20;;;13.20;;
30096;SDS011;16915;51.466;3.610;2024-03-25T07:05:05;42.05;;;13.70;;
30096;SDS011;16915;51.466;3.610;2024-03-25T07:07:32;43.30;;;13.45;;
30096;SDS011;16915;51.466;3.610;2024-03-25T07:09:59;45.78;;;14.73;;
30096;SDS011;16915;51.466;3.610;2024-03-25T07:12:24;41.55;;;14.57;;
30096;SDS011;16915;51.466;3.610;2024-03-25T07:14:50;40.85;;;14.10;;
30096;SDS011;16915;51.466;3.610;2024-03-25T07:17:15;49.38;;;12.68;;
30096;SDS011;16915;51.466;3.610;2024-03-25T07:19:41;52.13;;;15.30;;
30096;SDS011;16915;51.466;3.610;2024-03-25T07:22:07;35.83;;;12.23;;
30096;SDS011;16915;51.466;3.610;2024-03-25T07:24:33;48.55;;;13.75;;
30096;SDS011;16915;51.466;3.610;2024-03-25T07:26:58;40.80;;;12.65;;
30096;SDS011;16915;51.466;3.610;2024-03-25T07:29:24;46.63;;;12.40;;
30096;SDS011;16915;51.466;3.610;2024-03-25T07:31:49;39.90;;;13.15;;
30096;SDS011;16915;51.466;3.610;2024-03-25T07:34:15;39.35;;;12.23;;
30096;SDS011;16915;51.466;3.610;2024-03-25T07:36:40;34.80;;;9.73;;
30096;SDS011;16915;51.466;3.610;2024-03-25T07:39:06;25.27;;;8.35;;
30096;SDS011;16915;51.466;3.610;2024-03-25T07:41:35;29.92;;;9.75;;
30096;SDS011;16915;51.466;3.610;2024-03-25T07:44:04;39.88;;;9.40;;
30096;SDS011;16915;51.466;3.610;2024-03-25T07:46:30;30.83;;;9.43;;
30096;SDS011;16915;51.466;3.610;2024-03-25T07:48:55;30.77;;;9.30;;
30096;SDS011;16915;51.466;3.610;2024-03-25T07:51:21;35.03;;;9.15;;
30096;SDS011;16915;51.466;3.610;2024-03-25T07:53:47;37.28;;;9.23;;
30096;SDS011;16915;51.466;3.610;2024-03-25T07:56:12;24.15;;;8.70;;
30096;SDS011;16915;51.466;3.610;2024-03-25T07:58:38;54.92;;;9.43;;
30096;SDS011;16915;51.466;3.610;2024-03-25T08:01:04;50.40;;;9.57;;
30096;SDS011;16915;51.466;3.610;2024-03-25T08:03:30;47.47;;;9.27;;
30096;SDS011;16915;51.466;3.610;2024-03-25T08:05:56;40.78;;;10.32;;
30096;SDS011;16915;51.466;3.610;2024-03-25T08:08:21;34.53;;;9.45;;
30096;SDS011;16915;51.466;3.610;2024-03-25T08:10:47;54.42;;;9.82;;
30096;SDS011;16915;51.466;3.610;2024-03-25T08:13:12;62.00;;;11.20;;
30096;SDS011;16915;51.466;3.610;2024-03-25T08:15:38;58.42;;;11.18;;
30096;SDS011;16915;51.466;3.610;2024-03-25T08:18:04;41.08;;;10.85;;
30096;SDS011;16915;51.466;3.610;2024-03-25T08:20:29;38.63;;;11.35;;
30096;SDS011;16915;51.466;3.610;2024-03-25T08:22:55;40.80;;;10.60;;
30096;SDS011;16915;51.466;3.610;2024-03-25T08:25:20;45.30;;;10.93;;
30096;SDS011;16915;51.466;3.610;2024-03-25T08:27:46;36.53;;;9.70;;
30096;SDS011;16915;51.466;3.610;2024-03-25T08:30:12;59.72;;;10.95;;
30096;SDS011;16915;51.466;3.610;2024-03-25T08:32:37;46.30;;;10.23;;
30096;SDS011;16915;51.466;3.610;2024-03-25T08:35:03;60.58;;;10.80;;
30096;SDS011;16915;51.466;3.610;2024-03-25T08:37:28;34.38;;;10.88;;
30096;SDS011;16915;51.466;3.610;2024-03-25T08:39:54;44.70;;;11.82;;
30096;SDS011;16915;51.466;3.610;2024-03-25T08:42:19;37.72;;;11.80;;
30096;SDS011;16915;51.466;3.610;2024-03-25T08:44:46;35.17;;;11.38;;
30096;SDS011;16915;51.466;3.610;2024-03-25T08:47:12;42.38;;;12.55;;
30096;SDS011;16915;51.466;3.610;2024-03-25T08:49:37;30.98;;;12.27;;
30096;SDS011;16915;51.466;3.610;2024-03-25T08:52:03;49.50;;;12.00;;
30096;SDS011;16915;51.466;3.610;2024-03-25T08:54:29;49.58;;;13.20;;
30096;SDS011;16915;51.466;3.610;2024-03-25T08:56:54;35.30;;;12.60;;
30096;SDS011;16915;51.466;3.610;2024-03-25T08:59:20;43.15;;;11.98;;
30096;SDS011;16915;51.466;3.610;2024-03-25T09:01:45;39.63;;;12.60;;
30096;SDS011;16915;51.466;3.610;2024-03-25T09:04:11;31.58;;;12.18;;
30096;SDS011;16915;51.466;3.610;2024-03-25T09:06:36;35.20;;;12.38;;
30096;SDS011;16915;51.466;3.610;2024-03-25T09:09:02;33.20;;;12.80;;
30096;SDS011;16915;51.466;3.610;2024-03-25T09:11:47;34.30;;;12.35;;
30096;SDS011;16915;51.466;3.610;2024-03-25T09:14:12;38.10;;;12.15;;
30096;SDS011;16915;51.466;3.610;2024-03-25T09:16:38;32.40;;;12.55;;
30096;SDS011;16915;51.466;3.610;2024-03-25T09:19:03;33.85;;;12.27;;
30096;SDS011;16915;51.466;3.610;2024-03-25T09:21:29;38.75;;;13.57;;
30096;SDS011;16915;51.466;3.610;2024-03-25T09:23:54;31.48;;;11.80;;
30096;SDS011;16915;51.466;3.610;2024-03-25T09:26:22;38.58;;;12.95;;
30096;SDS011;16915;51.466;3.610;2024-03-25T09:28:48;38.67;;;13.23;;
30096;SDS011;16915;51.466;3.610;2024-03-25T09:31:13;39.13;;;13.55;;
30096;SDS011;16915;51.466;3.610;2024-03-25T09:33:39;38.85;;;12.98;;
30096;SDS011;16915;51.466;3.610;2024-03-25T09:36:04;41.50;;;14.38;;
30096;SDS011;16915;51.466;3.610;2024-03-25T09:38:30;34.53;;;13.77;;
30096;SDS011;16915;51.466;3.610;2024-03-25T09:40:56;36.17;;;14.40;;
30096;SDS011;16915;51.466;3.610;2024-03-25T09:43:28;33.83;;;14.52;;
30096;SDS011;16915;51.466;3.610;2024-03-25T09:46:16;40.70;;;14.43;;
30096;SDS011;16915;51.466;3.610;2024-03-25T09:48:42;32.58;;;13.65;;
30096;SDS011;16915;51.466;3.610;2024-03-25T09:51:11;41.13;;;15.02;;
30096;SDS011;16915;51.466;3.610;2024-03-25T09:53:37;36.53;;;14.65;;
30096;SDS011;16915;51.466;3.610;2024-03-25T09:56:03;40.67;;;15.23;;
30096;SDS011;16915;51.466;3.610;2024-03-25T09:58:29;42.03;;;14.00;;
30096;SDS011;16915;51.466;3.610;2024-03-25T10:00:56;41.83;;;15.98;;
30096;SDS011;16915;51.466;3.610;2024-03-25T10:03:23;38.15;;;14.95;;
30096;SDS011;16915;51.466;3.610;2024-03-25T10:05:48;35.75;;;15.40;;
30096;SDS011;16915;51.466;3.610;2024-03-25T10:08:19;42.75;;;15.90;;
30096;SDS011;16915;51.466;3.610;2024-03-25T10:10:45;35.13;;;14.68;;
30096;SDS011;16915;51.466;3.610;2024-03-25T10:13:11;45.05;;;16.27;;
30096;SDS011;16915;51.466;3.610;2024-03-25T10:15:36;35.17;;;15.30;;
30096;SDS011;16915;51.466;3.610;2024-03-25T10:18:02;36.50;;;15.00;;
30096;SDS011;16915;51.466;3.610;2024-03-25T10:20:28;39.25;;;15.73;;
30096;SDS011;16915;51.466;3.610;2024-03-25T10:22:53;39.72;;;14.43;;
30096;SDS011;16915;51.466;3.610;2024-03-25T10:27:57;37.03;;;15.82;;
30096;SDS011;16915;51.466;3.610;2024-03-25T10:30:24;35.42;;;15.50;;
30096;SDS011;16915;51.466;3.610;2024-03-25T10:33:00;30.95;;;15.75;;
30096;SDS011;16915;51.466;3.610;2024-03-25T10:35:33;25.17;;;12.73;;
30096;SDS011;16915;51.466;3.610;2024-03-25T10:38:01;26.35;;;11.55;;
30096;SDS011;16915;51.466;3.610;2024-03-25T10:40:30;24.35;;;11.43;;
30096;SDS011;16915;51.466;3.610;2024-03-25T10:43:00;20.88;;;10.43;;
30096;SDS011;16915;51.466;3.610;2024-03-25T10:45:31;22.90;;;10.15;;
30096;SDS011;16915;51.466;3.610;2024-03-25T10:48:02;22.63;;;9.57;;
30096;SDS011;16915;51.466;3.610;2024-03-25T10:50:32;23.17;;;9.07;;
30096;SDS011;16915;51.466;3.610;2024-03-25T10:53:00;17.73;;;8.80;;
30096;SDS011;16915;51.466;3.610;2024-03-25T10:55:29;20.27;;;8.23;;
30096;SDS011;16915;51.466;3.610;2024-03-25T10:57:58;21.67;;;8.10;;
30096;SDS011;16915;51.466;3.610;2024-03-25T11:00:25;16.60;;;7.70;;
30096;SDS011;16915;51.466;3.610;2024-03-25T11:02:51;15.68;;;7.38;;
30096;SDS011;16915;51.466;3.610;2024-03-25T11:05:18;17.85;;;7.72;;
30096;SDS011;16915;51.466;3.610;2024-03-25T11:07:44;16.60;;;7.63;;
30096;SDS011;16915;51.466;3.610;2024-03-25T11:10:11;16.13;;;7.05;;
30096;SDS011;16915;51.466;3.610;2024-03-25T11:12:37;12.07;;;7.00;;
30096;SDS011;16915;51.466;3.610;2024-03-25T11:15:05;14.43;;;7.00;;
30096;SDS011;16915;51.466;3.610;2024-03-25T11:17:35;13.20;;;7.13;;
30096;SDS011;16915;51.466;3.610;2024-03-25T11:20:11;15.05;;;6.70;;
30096;SDS011;16915;51.466;3.610;2024-03-25T11:25:15;16.90;;;6.88;;
30096;SDS011;16915;51.466;3.610;2024-03-25T11:27:43;13.20;;;6.90;;
30096;SDS011;16915;51.466;3.610;2024-03-25T11:30:12;15.50;;;7.05;;
30096;SDS011;16915;51.466;3.610;2024-03-25T11:32:52;15.80;;;6.78;;
30096;SDS011;16915;51.466;3.610;2024-03-25T11:35:18;15.63;;;6.47;;
30096;SDS011;16915;51.466;3.610;2024-03-25T11:37:44;14.25;;;5.95;;
30096;SDS011;16915;51.466;3.610;2024-03-25T11:40:11;12.32;;;5.68;;
30096;SDS011;16915;51.466;3.610;2024-03-25T11:42:39;11.43;;;5.47;;
30096;SDS011;16915;51.466;3.610;2024-03-25T11:45:15;11.18;;;5.65;;
30096;SDS011;16915;51.466;3.610;2024-03-25T11:47:42;16.65;;;5.68;;
30096;SDS011;16915;51.466;3.610;2024-03-25T11:50:09;12.00;;;5.63;;
30096;SDS011;16915;51.466;3.610;2024-03-25T11:52:38;11.20;;;5.22;;
30096;SDS011;16915;51.466;3.610;2024-03-25T11:55:04;9.50;;;4.88;;
30096;SDS011;16915;51.466;3.610;2024-03-25T11:57:30;12.07;;;5.03;;
30096;SDS011;16915;51.466;3.610;2024-03-25T11:59:57;10.18;;;4.95;;
30096;SDS011;16915;51.466;3.610;2024-03-25T12:02:23;7.88;;;4.82;;
30096;SDS011;16915;51.466;3.610;2024-03-25T12:04:49;15.05;;;5.20;;
30096;SDS011;16915;51.466;3.610;2024-03-25T12:07:15;14.77;;;5.53;;
30096;SDS011;16915;51.466;3.610;2024-03-25T12:09:41;17.50;;;4.82;;
30096;SDS011;16915;51.466;3.610;2024-03-25T12:12:26;12.07;;;5.00;;
30096;SDS011;16915;51.466;3.610;2024-03-25T12:14:52;7.38;;;4.13;;
30096;SDS011;16915;51.466;3.610;2024-03-25T12:17:19;10.55;;;4.32;;
30096;SDS011;16915;51.466;3.610;2024-03-25T12:22:44;7.15;;;3.50;;
30096;SDS011;16915;51.466;3.610;2024-03-25T12:25:10;12.50;;;4.07;;
30096;SDS011;16915;51.466;3.610;2024-03-25T12:27:36;10.27;;;4.13;;
30096;SDS011;16915;51.466;3.610;2024-03-25T12:30:04;8.45;;;3.13;;
30096;SDS011;16915;51.466;3.610;2024-03-25T12:32:44;11.88;;;4.18;;
30096;SDS011;16915;51.466;3.610;2024-03-25T12:35:11;9.60;;;4.05;;
30096;SDS011;16915;51.466;3.610;2024-03-25T12:37:44;8.80;;;4.05;;
30096;SDS011;16915;51.466;3.610;2024-03-25T12:40:12;9.48;;;4.55;;
30096;SDS011;16915;51.466;3.610;2024-03-25T12:42:51;9.30;;;3.97;;
30096;SDS011;16915;51.466;3.610;2024-03-25T12:45:17;7.82;;;3.03;;
30096;SDS011;16915;51.466;3.610;2024-03-25T12:47:43;13.07;;;3.97;;
30096;SDS011;16915;51.466;3.610;2024-03-25T12:50:09;7.78;;;3.25;;
30096;SDS011;16915;51.466;3.610;2024-03-25T12:52:34;8.05;;;3.47;;
30096;SDS011;16915;51.466;3.610;2024-03-25T12:55:01;7.47;;;3.42;;
30096;SDS011;16915;51.466;3.610;2024-03-25T12:57:27;5.80;;;2.75;;
30096;SDS011;16915;51.466;3.610;2024-03-25T12:59:52;8.52;;;3.90;;
30096;SDS011;16915;51.466;3.610;2024-03-25T13:02:18;10.02;;;4.10;;
30096;SDS011;16915;51.466;3.610;2024-03-25T13:04:44;7.72;;;4.30;;
30096;SDS011;16915;51.466;3.610;2024-03-25T13:07:09;11.90;;;3.88;;
30096;SDS011;16915;51.466;3.610;2024-03-25T13:09:35;7.32;;;3.67;;
30096;SDS011;16915;51.466;3.610;2024-03-25T13:12:01;7.10;;;3.88;;
30096;SDS011;16915;51.466;3.610;2024-03-25T13:14:27;9.07;;;4.15;;
30096;SDS011;16915;51.466;3.610;2024-03-25T13:16:52;7.63;;;4.03;;
30096;SDS011;16915;51.466;3.610;2024-03-25T13:19:18;8.50;;;3.83;;
30096;SDS011;16915;51.466;3.610;2024-03-25T13:21:43;8.85;;;4.03;;
30096;SDS011;16915;51.466;3.610;2024-03-25T13:24:09;10.45;;;3.97;;
30096;SDS011;16915;51.466;3.610;2024-03-25T13:26:35;11.38;;;4.55;;
30096;SDS011;16915;51.466;3.610;2024-03-25T13:29:00;9.63;;;3.90;;
30096;SDS011;16915;51.466;3.610;2024-03-25T13:31:27;7.85;;;4.20;;
30096;SDS011;16915;51.466;3.610;2024-03-25T13:33:53;8.15;;;4.13;;
30096;SDS011;16915;51.466;3.610;2024-03-25T13:36:18;11.50;;;4.55;;
30096;SDS011;16915;51.466;3.610;2024-03-25T13:38:44;10.75;;;4.35;;
30096;SDS011;16915;51.466;3.610;2024-03-25T13:41:10;6.35;;;3.70;;
30096;SDS011;16915;51.466;3.610;2024-03-25T13:43:42;4.38;;;3.03;;
30096;SDS011;16915;51.466;3.610;2024-03-25T13:46:07;4.88;;;3.05;;
30096;SDS011;16915;51.466;3.610;2024-03-25T13:48:33;15.55;;;4.35;;
30096;SDS011;16915;51.466;3.610;2024-03-25T13:50:59;3.97;;;2.22;;
30096;SDS011;16915;51.466;3.610;2024-03-25T13:53:25;2.92;;;1.80;;
30096;SDS011;16915;51.466;3.610;2024-03-25T13:55:50;3.47;;;2.28;;
30096;SDS011;16915;51.466;3.610;2024-03-25T13:58:16;6.18;;;2.33;;
30096;SDS011;16915;51.466;3.610;2024-03-25T14:00:41;7.45;;;2.97;;
30096;SDS011;16915;51.466;3.610;2024-03-25T14:03:07;4.22;;;1.75;;
30096;SDS011;16915;51.466;3.610;2024-03-25T14:05:32;6.50;;;2.33;;
30096;SDS011;16915;51.466;3.610;2024-03-25T14:07:58;2.83;;;1.88;;
30096;SDS011;16915;51.466;3.610;2024-03-25T14:10:24;4.18;;;1.90;;
30096;SDS011;16915;51.466;3.610;2024-03-25T14:12:49;4.72;;;1.80;;
30096;SDS011;16915;51.466;3.610;2024-03-25T14:15:15;5.07;;;2.10;;
30096;SDS011;16915;51.466;3.610;2024-03-25T14:17:40;4.60;;;2.10;;
30096;SDS011;16915;51.466;3.610;2024-03-25T14:20:06;5.38;;;2.00;;
30096;SDS011;16915;51.466;3.610;2024-03-25T14:22:33;3.17;;;2.10;;
30096;SDS011;16915;51.466;3.610;2024-03-25T14:24:59;3.45;;;1.80;;
30096;SDS011;16915;51.466;3.610;2024-03-25T14:27:25;4.28;;;1.90;;
30096;SDS011;16915;51.466;3.610;2024-03-25T14:29:51;5.18;;;2.00;;
30096;SDS011;16915;51.466;3.610;2024-03-25T14:32:20;4.97;;;1.90;;
30096;SDS011;16915;51.466;3.610;2024-03-25T14:34:47;7.43;;;2.10;;
30096;SDS011;16915;51.466;3.610;2024-03-25T14:37:13;4.30;;;1.88;;